Time;durP1;ratioP1;P1;durP2;ratioP2;P2;SDS_P1;SDS_P2;PMS_P1;PMS_P2;Temp;Humidity;BMP_temperature;BMP_pressure;BME280_temperature;BME280_humidity;BME280_pressure;Samples;Min_cycle;Max_cycle;Signal;HPM_P1;HPM_P2
2023/07/12 00:01:42;;;;;;;5.70;2.63;;;;;;;;;;5007318;28;92509;-79
2023/07/12 00:04:09;;;;;;;4.55;2.70;;;;;;;;;;4999714;28;93229;-79
2023/07/12 00:06:36;;;;;;;4.35;2.83;;;;;;;;;;5004374;28;93294;-80
2023/07/12 00:09:04;;;;;;;13.57;3.25;;;;;;;;;;4993524;28;92920;-80
2023/07/12 00:11:31;;;;;;;11.18;3.20;;;;;;;;;;4997979;28;93829;-79
2023/07/12 00:13:58;;;;;;;12.43;3.28;;;;;;;;;;4998402;28;92619;-79
2023/07/12 00:16:26;;;;;;;4.72;2.80;;;;;;;;;;5000450;28;93933;-78
2023/07/12 00:18:53;;;;;;;4.95;2.97;;;;;;;;;;5014607;28;94154;-77
2023/07/12 00:21:24;;;;;;;3.78;2.22;;;;;;;;;;4993847;28;95276;-85
2023/07/12 00:23:52;;;;;;;5.20;2.70;;;;;;;;;;4995409;28;96706;-84
2023/07/12 00:26:39;;;;;;;7.45;2.53;;;;;;;;;;5006033;28;94679;-83
2023/07/12 00:29:07;;;;;;;7.18;2.70;;;;;;;;;;5003224;28;93899;-85
2023/07/12 00:31:35;;;;;;;4.07;1.95;;;;;;;;;;4997249;28;94455;-87
2023/07/12 00:34:01;;;;;;;10.63;2.28;;;;;;;;;;5008620;28;94722;-84
2023/07/12 00:36:29;;;;;;;10.32;2.35;;;;;;;;;;5006468;28;92639;-82
2023/07/12 00:38:56;;;;;;;9.43;2.53;;;;;;;;;;5003385;28;96087;-82
2023/07/12 00:41:42;;;;;;;4.93;2.38;;;;;;;;;;5012621;28;93876;-81
2023/07/12 00:44:17;;;;;;;7.30;2.10;;;;;;;;;;4994092;28;93118;-84
2023/07/12 00:46:47;;;;;;;7.20;2.20;;;;;;;;;;5007271;28;95816;-84
2023/07/12 00:49:14;;;;;;;7.85;2.45;;;;;;;;;;5010099;28;92452;-84
2023/07/12 00:51:46;;;;;;;10.77;2.63;;;;;;;;;;4999805;28;94165;-84
2023/07/12 00:54:14;;;;;;;6.60;2.20;;;;;;;;;;4994883;28;93969;-81
2023/07/12 00:56:41;;;;;;;9.15;2.10;;;;;;;;;;4995618;28;92698;-81
2023/07/12 00:59:10;;;;;;;7.68;2.85;;;;;;;;;;4993839;28;93446;-82
2023/07/12 01:01:37;;;;;;;13.57;2.53;;;;;;;;;;4996661;28;93963;-82
2023/07/12 01:04:04;;;;;;;4.45;2.05;;;;;;;;;;4999437;28;91792;-81
2023/07/12 01:06:31;;;;;;;6.53;2.35;;;;;;;;;;4998894;28;93548;-83
2023/07/12 01:09:01;;;;;;;7.50;2.42;;;;;;;;;;5006636;28;92594;-83
2023/07/12 01:11:28;;;;;;;8.13;2.13;;;;;;;;;;5004252;28;94830;-82
2023/07/12 01:13:55;;;;;;;10.23;2.85;;;;;;;;;;5007201;28;93293;-81
2023/07/12 01:16:24;;;;;;;9.55;2.70;;;;;;;;;;5001490;28;92823;-88
2023/07/12 01:18:50;;;;;;;7.47;2.75;;;;;;;;;;5002828;28;94383;-91
2023/07/12 01:21:19;;;;;;;8.63;2.75;;;;;;;;;;5017011;28;93529;-89
2023/07/12 01:23:45;;;;;;;14.90;2.70;;;;;;;;;;5010972;28;92511;-88
2023/07/12 01:26:17;;;;;;;8.07;2.40;;;;;;;;;;5014444;28;98237;-84
2023/07/12 01:28:45;;;;;;;11.65;2.67;;;;;;;;;;5015801;28;91669;-79
2023/07/12 01:31:11;;;;;;;12.27;2.92;;;;;;;;;;5014522;28;92638;-79
2023/07/12 01:33:38;;;;;;;12.02;2.58;;;;;;;;;;5005927;28;93393;-79
2023/07/12 01:36:04;;;;;;;11.35;3.40;;;;;;;;;;5003457;28;95124;-79
2023/07/12 01:38:31;;;;;;;10.48;2.90;;;;;;;;;;5014583;28;95949;-80
2023/07/12 01:40:57;;;;;;;9.43;2.85;;;;;;;;;;5014484;28;93312;-78
2023/07/12 01:43:23;;;;;;;17.80;3.10;;;;;;;;;;5020740;28;92431;-83
2023/07/12 01:45:51;;;;;;;15.52;3.22;;;;;;;;;;5025574;28;94164;-84
2023/07/12 01:48:18;;;;;;;18.23;3.20;;;;;;;;;;5012905;28;92627;-85
2023/07/12 01:50:44;;;;;;;15.45;4.07;;;;;;;;;;5008633;28;94288;-84
2023/07/12 01:53:11;;;;;;;17.27;3.47;;;;;;;;;;5005080;28;92676;-84
2023/07/12 01:55:37;;;;;;;11.88;2.95;;;;;;;;;;5003843;28;92840;-84
2023/07/12 01:58:04;;;;;;;11.35;3.28;;;;;;;;;;5007846;28;92505;-83
2023/07/12 02:00:30;;;;;;;17.42;4.00;;;;;;;;;;5008548;28;97036;-77
2023/07/12 02:02:56;;;;;;;13.68;3.63;;;;;;;;;;5008135;28;94501;-78
2023/07/12 02:05:24;;;;;;;12.80;2.90;;;;;;;;;;5010647;28;93322;-78
2023/07/12 02:07:52;;;;;;;14.85;3.38;;;;;;;;;;5007476;28;93800;-78
2023/07/12 02:10:19;;;;;;;9.95;2.80;;;;;;;;;;5003508;28;94239;-77
2023/07/12 02:12:46;;;;;;;23.60;3.67;;;;;;;;;;5006166;28;93442;-77
2023/07/12 02:15:13;;;;;;;15.70;3.72;;;;;;;;;;5007831;28;94181;-81
2023/07/12 02:17:40;;;;;;;14.45;3.45;;;;;;;;;;5001607;28;93505;-81
2023/07/12 02:20:07;;;;;;;15.65;4.07;;;;;;;;;;5000663;28;93428;-80
2023/07/12 02:22:34;;;;;;;11.68;3.60;;;;;;;;;;5009348;28;92566;-80
2023/07/12 02:25:01;;;;;;;14.07;3.08;;;;;;;;;;4999334;28;95425;-81
2023/07/12 02:27:27;;;;;;;17.30;3.00;;;;;;;;;;5009799;28;94584;-82
2023/07/12 02:29:54;;;;;;;10.88;2.97;;;;;;;;;;5012070;28;94004;-81
2023/07/12 02:32:22;;;;;;;21.05;3.50;;;;;;;;;;5003949;28;93614;-81
2023/07/12 02:34:51;;;;;;;11.75;3.20;;;;;;;;;;5007075;28;92501;-82
2023/07/12 02:37:17;;;;;;;18.47;3.37;;;;;;;;;;5006606;28;93162;-80
2023/07/12 02:39:45;;;;;;;15.07;3.35;;;;;;;;;;5004903;28;93501;-80
2023/07/12 02:42:11;;;;;;;13.25;3.45;;;;;;;;;;5000080;28;91793;-81
2023/07/12 02:44:39;;;;;;;8.02;2.85;;;;;;;;;;5004027;28;93630;-81
2023/07/12 02:47:07;;;;;;;15.30;3.47;;;;;;;;;;5009605;28;93425;-81
2023/07/12 02:49:33;;;;;;;17.67;3.25;;;;;;;;;;5011450;28;94863;-86
2023/07/12 02:52:00;;;;;;;13.18;3.15;;;;;;;;;;5007802;28;95753;-86
2023/07/12 02:54:26;;;;;;;10.02;3.00;;;;;;;;;;5015626;28;92488;-86
2023/07/12 02:56:53;;;;;;;11.82;3.20;;;;;;;;;;5001888;28;94015;-87
2023/07/12 02:59:19;;;;;;;14.43;3.20;;;;;;;;;;4997045;28;93682;-80
2023/07/12 03:01:46;;;;;;;9.07;3.13;;;;;;;;;;5006704;28;94035;-83
2023/07/12 03:04:12;;;;;;;14.60;3.88;;;;;;;;;;5001337;28;93120;-83
2023/07/12 03:06:39;;;;;;;13.65;3.97;;;;;;;;;;5013775;28;92560;-81
2023/07/12 03:09:05;;;;;;;17.88;4.10;;;;;;;;;;5004277;28;94383;-82
2023/07/12 03:11:32;;;;;;;14.98;3.92;;;;;;;;;;5009005;28;94142;-82
2023/07/12 03:13:59;;;;;;;16.92;3.90;;;;;;;;;;4995210;28;94855;-82
2023/07/12 03:16:25;;;;;;;10.48;3.55;;;;;;;;;;4999908;28;96731;-81
2023/07/12 03:18:52;;;;;;;16.45;4.43;;;;;;;;;;5005648;28;93272;-81
2023/07/12 03:21:19;;;;;;;20.30;5.03;;;;;;;;;;5015905;28;92419;-81
2023/07/12 03:23:45;;;;;;;16.65;4.60;;;;;;;;;;4999627;28;93046;-81
2023/07/12 03:26:12;;;;;;;20.33;5.93;;;;;;;;;;4996092;28;93448;-80
2023/07/12 03:28:38;;;;;;;16.98;5.82;;;;;;;;;;4996371;28;92428;-82
2023/07/12 03:31:17;;;;;;;15.55;5.95;;;;;;;;;;4998397;28;94257;-86
2023/07/12 03:33:45;;;;;;;17.83;6.22;;;;;;;;;;5003671;28;94679;-79
2023/07/12 03:36:12;;;;;;;17.65;6.75;;;;;;;;;;5016000;28;93140;-87
2023/07/12 03:38:39;;;;;;;18.00;7.13;;;;;;;;;;5014375;28;96089;-86
2023/07/12 03:41:07;;;;;;;22.45;6.85;;;;;;;;;;5017247;28;92780;-84
2023/07/12 03:43:34;;;;;;;24.23;7.15;;;;;;;;;;5017209;28;94260;-84
2023/07/12 03:46:00;;;;;;;18.58;7.07;;;;;;;;;;5014943;28;94437;-86
2023/07/12 03:48:27;;;;;;;17.55;8.68;;;;;;;;;;5009158;28;92488;-83
2023/07/12 03:50:56;;;;;;;17.25;7.72;;;;;;;;;;4998104;28;94213;-82
2023/07/12 03:53:23;;;;;;;19.05;8.07;;;;;;;;;;4995854;28;98018;-83
2023/07/12 03:55:49;;;;;;;18.55;8.43;;;;;;;;;;4999607;28;91851;-82
2023/07/12 03:58:17;;;;;;;18.65;8.02;;;;;;;;;;4994930;28;93408;-85
2023/07/12 04:00:45;;;;;;;15.80;7.55;;;;;;;;;;4997052;28;92474;-85
2023/07/12 04:03:12;;;;;;;16.42;7.22;;;;;;;;;;5005996;28;95168;-84
2023/07/12 04:05:39;;;;;;;19.65;7.10;;;;;;;;;;5006514;28;93506;-84
2023/07/12 04:08:05;;;;;;;16.02;6.72;;;;;;;;;;4997987;28;92499;-85
2023/07/12 04:10:32;;;;;;;14.02;7.20;;;;;;;;;;4995797;28;92955;-83
2023/07/12 04:12:59;;;;;;;14.60;6.38;;;;;;;;;;4996306;28;94598;-80
2023/07/12 04:15:25;;;;;;;17.83;7.00;;;;;;;;;;5012301;28;92573;-80
2023/07/12 04:17:51;;;;;;;15.68;6.38;;;;;;;;;;5003605;28;94506;-80
2023/07/12 04:20:18;;;;;;;15.27;6.68;;;;;;;;;;4996910;28;91683;-83
2023/07/12 04:22:48;;;;;;;16.45;6.00;;;;;;;;;;5005214;28;94403;-83
2023/07/12 04:25:14;;;;;;;15.50;6.37;;;;;;;;;;5006127;28;97447;-83
2023/07/12 04:27:41;;;;;;;17.73;6.75;;;;;;;;;;4999474;28;94971;-82
2023/07/12 04:30:09;;;;;;;13.10;6.18;;;;;;;;;;4997024;28;96673;-80
2023/07/12 04:32:36;;;;;;;16.02;6.35;;;;;;;;;;5000937;28;94650;-81
2023/07/12 04:35:03;;;;;;;22.38;7.05;;;;;;;;;;5004738;28;92418;-83
2023/07/12 04:37:30;;;;;;;18.58;6.25;;;;;;;;;;5005285;28;92673;-83
2023/07/12 04:39:57;;;;;;;10.70;5.70;;;;;;;;;;5002654;28;92822;-81
2023/07/12 04:42:23;;;;;;;13.65;6.45;;;;;;;;;;5000861;28;94278;-81
2023/07/12 04:44:50;;;;;;;12.77;6.20;;;;;;;;;;4999619;28;93646;-82
2023/07/12 04:47:16;;;;;;;19.15;7.07;;;;;;;;;;5001704;28;92429;-82
2023/07/12 04:49:43;;;;;;;19.67;6.90;;;;;;;;;;4996674;28;94664;-82
2023/07/12 04:52:12;;;;;;;19.75;7.25;;;;;;;;;;4997346;28;97265;-82
2023/07/12 04:54:40;;;;;;;13.80;6.93;;;;;;;;;;5013724;28;92409;-82
2023/07/12 04:57:06;;;;;;;19.33;7.72;;;;;;;;;;5012908;28;95841;-82
2023/07/12 04:59:34;;;;;;;21.35;9.25;;;;;;;;;;4994758;28;94500;-82
2023/07/12 05:02:01;;;;;;;14.50;7.68;;;;;;;;;;5001705;28;92711;-82
2023/07/12 05:04:27;;;;;;;15.48;7.82;;;;;;;;;;5004583;28;94809;-82
2023/07/12 05:06:54;;;;;;;17.00;8.32;;;;;;;;;;4997602;28;92699;-81
2023/07/12 05:09:21;;;;;;;13.93;8.30;;;;;;;;;;4995882;28;93469;-82
2023/07/12 05:11:48;;;;;;;19.60;8.45;;;;;;;;;;4992600;28;95986;-81
2023/07/12 05:14:14;;;;;;;19.42;8.23;;;;;;;;;;5007584;28;92571;-82
2023/07/12 05:16:41;;;;;;;19.13;8.88;;;;;;;;;;5003771;28;94839;-81
2023/07/12 05:19:12;;;;;;;25.33;8.90;;;;;;;;;;5004100;28;94784;-87
2023/07/12 05:21:39;;;;;;;25.85;9.60;;;;;;;;;;5018192;28;92395;-87
2023/07/12 05:24:05;;;;;;;24.75;9.35;;;;;;;;;;5017601;28;93515;-87
2023/07/12 05:26:32;;;;;;;22.92;9.77;;;;;;;;;;5017533;28;92597;-88
2023/07/12 05:28:58;;;;;;;20.52;9.75;;;;;;;;;;5016864;28;97558;-82
2023/07/12 05:31:26;;;;;;;19.20;8.88;;;;;;;;;;5014901;28;94612;-86
2023/07/12 05:33:52;;;;;;;23.23;9.20;;;;;;;;;;5013936;28;91645;-85
2023/07/12 05:36:19;;;;;;;16.85;9.10;;;;;;;;;;5015739;28;93681;-82
2023/07/12 05:38:45;;;;;;;16.48;8.25;;;;;;;;;;5015019;28;94438;-82
2023/07/12 05:41:11;;;;;;;15.07;7.80;;;;;;;;;;5014118;28;94795;-84
2023/07/12 05:43:40;;;;;;;18.88;8.18;;;;;;;;;;5006798;28;96729;-86
2023/07/12 05:46:07;;;;;;;20.73;8.30;;;;;;;;;;4997117;28;92600;-85
2023/07/12 05:48:33;;;;;;;18.13;7.50;;;;;;;;;;5014996;28;94360;-85
2023/07/12 05:51:01;;;;;;;21.15;8.18;;;;;;;;;;5003920;28;97580;-82
2023/07/12 05:53:28;;;;;;;19.63;7.68;;;;;;;;;;5007654;28;92622;-85
2023/07/12 05:55:55;;;;;;;21.77;7.85;;;;;;;;;;5005759;28;93235;-84
2023/07/12 05:58:22;;;;;;;17.45;7.70;;;;;;;;;;5014536;28;94318;-84
2023/07/12 06:00:54;;;;;;;25.30;8.60;;;;;;;;;;5004638;28;92584;-84
2023/07/12 06:03:22;;;;;;;26.85;8.38;;;;;;;;;;5006711;28;94169;-83
2023/07/12 06:05:52;;;;;;;19.08;7.50;;;;;;;;;;5002599;28;97045;-85
2023/07/12 06:08:18;;;;;;;21.08;7.53;;;;;;;;;;4996968;28;95477;-85
2023/07/12 06:10:45;;;;;;;20.20;6.30;;;;;;;;;;5003731;28;94758;-80
2023/07/12 06:13:14;;;;;;;14.30;6.80;;;;;;;;;;5003197;28;94066;-84
2023/07/12 06:15:42;;;;;;;24.98;6.43;;;;;;;;;;5010163;28;94663;-86
2023/07/12 06:18:08;;;;;;;19.48;6.88;;;;;;;;;;5010222;28;94419;-82
2023/07/12 06:20:36;;;;;;;19.40;6.78;;;;;;;;;;5002610;28;92671;-85
2023/07/12 06:23:02;;;;;;;19.17;6.93;;;;;;;;;;4992990;28;94420;-84
2023/07/12 06:25:29;;;;;;;17.90;6.47;;;;;;;;;;4993001;28;93436;-77
2023/07/12 06:27:57;;;;;;;18.75;6.65;;;;;;;;;;4997643;28;92939;-83
2023/07/12 06:30:23;;;;;;;22.65;7.03;;;;;;;;;;5009430;28;96255;-82
2023/07/12 06:32:50;;;;;;;23.13;7.07;;;;;;;;;;4998223;28;92507;-84
2023/07/12 06:35:16;;;;;;;23.80;6.35;;;;;;;;;;5008481;28;93699;-84
2023/07/12 06:37:43;;;;;;;17.67;6.20;;;;;;;;;;4999409;28;93864;-83
2023/07/12 06:40:09;;;;;;;21.80;6.63;;;;;;;;;;4999277;28;92494;-86
2023/07/12 06:42:36;;;;;;;25.48;6.43;;;;;;;;;;5006576;28;96056;-86
2023/07/12 06:45:02;;;;;;;30.00;6.57;;;;;;;;;;5007874;28;94682;-87
2023/07/12 06:47:31;;;;;;;20.75;5.93;;;;;;;;;;5012476;28;91656;-87
2023/07/12 06:49:57;;;;;;;21.52;5.88;;;;;;;;;;5006107;28;93204;-87
2023/07/12 06:52:24;;;;;;;20.45;5.65;;;;;;;;;;5005953;28;92775;-88
2023/07/12 06:54:50;;;;;;;19.83;5.60;;;;;;;;;;5006607;28;96402;-87
2023/07/12 06:57:16;;;;;;;16.80;5.18;;;;;;;;;;5012343;28;94568;-88
2023/07/12 06:59:43;;;;;;;13.05;5.30;;;;;;;;;;5009279;28;92770;-86
2023/07/12 07:02:10;;;;;;;15.15;4.93;;;;;;;;;;5018240;28;94433;-87
2023/07/12 07:04:36;;;;;;;20.08;5.43;;;;;;;;;;5012936;28;93337;-88
2023/07/12 07:07:03;;;;;;;22.38;6.03;;;;;;;;;;5013674;28;92506;-87
2023/07/12 07:09:30;;;;;;;13.35;4.55;;;;;;;;;;4999149;28;94351;-87
2023/07/12 07:11:56;;;;;;;14.35;5.00;;;;;;;;;;5012807;28;93619;-86
2023/07/12 07:14:23;;;;;;;27.27;5.50;;;;;;;;;;5012587;28;92665;-86
2023/07/12 07:16:49;;;;;;;18.70;5.28;;;;;;;;;;5009864;28;94569;-82
2023/07/12 07:19:16;;;;;;;14.80;4.40;;;;;;;;;;5002997;28;94994;-82
2023/07/12 07:21:46;;;;;;;19.70;4.82;;;;;;;;;;5027391;28;95905;-82
2023/07/12 07:24:12;;;;;;;;;;;;;;;;;;5014263;28;93743;-82
2023/07/12 07:26:39;;;;;;;22.98;5.05;;;;;;;;;;5012753;27;118410;-82
2023/07/12 07:29:06;;;;;;;22.27;5.55;;;;;;;;;;5010192;28;92687;-82
2023/07/12 07:31:33;;;;;;;23.60;4.75;;;;;;;;;;5007099;28;93427;-83
2023/07/12 07:33:59;;;;;;;14.15;4.28;;;;;;;;;;4999256;28;94358;-82
2023/07/12 07:36:25;;;;;;;16.55;4.28;;;;;;;;;;5000554;28;93133;-82
2023/07/12 07:38:52;;;;;;;20.92;4.55;;;;;;;;;;5036158;27;92533;-82
2023/07/12 07:41:18;;;;;;;20.17;4.43;;;;;;;;;;5016811;28;93856;-83
2023/07/12 07:43:45;;;;;;;17.30;4.53;;;;;;;;;;5012708;28;94970;-82
2023/07/12 07:46:15;;;;;;;13.77;4.30;;;;;;;;;;5008802;28;92543;-83
2023/07/12 07:48:42;;;;;;;21.08;4.93;;;;;;;;;;5026328;28;96384;-82
2023/07/12 07:51:09;;;;;;;18.02;4.22;;;;;;;;;;5015949;28;93816;-83
2023/07/12 07:53:36;;;;;;;29.00;5.40;;;;;;;;;;5008354;28;92544;-82
2023/07/12 07:56:02;;;;;;;18.42;4.72;;;;;;;;;;5002005;28;94641;-82
2023/07/12 07:58:29;;;;;;;20.02;4.45;;;;;;;;;;4997861;28;92527;-83
2023/07/12 08:00:55;;;;;;;19.67;4.47;;;;;;;;;;5008219;28;95198;-83
2023/07/12 08:03:22;;;;;;;25.40;4.40;;;;;;;;;;5004561;28;93489;-82
2023/07/12 08:05:48;;;;;;;16.02;4.15;;;;;;;;;;5004741;28;92496;-82
2023/07/12 08:08:15;;;;;;;19.45;3.72;;;;;;;;;;5007481;28;95514;-81
2023/07/12 08:10:42;;;;;;;16.98;4.15;;;;;;;;;;4994378;28;92439;-83
2023/07/12 08:13:08;;;;;;;18.02;4.20;;;;;;;;;;4993651;28;92814;-81
2023/07/12 08:15:35;;;;;;;13.77;3.42;;;;;;;;;;5004966;28;93420;-82
2023/07/12 08:18:02;;;;;;;18.73;3.35;;;;;;;;;;5016178;28;93112;-83
2023/07/12 08:20:28;;;;;;;17.58;3.22;;;;;;;;;;4999762;28;93151;-82
2023/07/12 08:22:55;;;;;;;16.90;3.88;;;;;;;;;;4995406;28;93926;-82
2023/07/12 08:25:21;;;;;;;21.52;4.40;;;;;;;;;;5003036;28;91771;-81
2023/07/12 08:27:48;;;;;;;22.20;3.88;;;;;;;;;;5012800;28;92362;-82
2023/07/12 08:30:14;;;;;;;22.08;3.72;;;;;;;;;;5010435;28;93423;-83
2023/07/12 08:32:41;;;;;;;18.17;4.07;;;;;;;;;;5013729;28;94854;-81
2023/07/12 08:35:09;;;;;;;17.65;3.85;;;;;;;;;;5015705;28;95532;-82
2023/07/12 08:37:35;;;;;;;27.35;4.45;;;;;;;;;;5012558;28;94094;-82
2023/07/12 08:40:02;;;;;;;20.33;3.92;;;;;;;;;;4999055;28;93300;-82
2023/07/12 08:42:34;;;;;;;13.60;3.40;;;;;;;;;;5002886;28;93947;-82
2023/07/12 08:45:01;;;;;;;21.50;3.67;;;;;;;;;;4997714;28;92955;-82
2023/07/12 08:47:30;;;;;;;11.63;3.00;;;;;;;;;;4996585;28;94159;-82
2023/07/12 08:49:57;;;;;;;22.00;3.13;;;;;;;;;;5011640;27;92836;-82
2023/07/12 08:52:27;;;;;;;19.15;3.88;;;;;;;;;;5003729;28;92707;-82
2023/07/12 08:54:55;;;;;;;25.58;4.20;;;;;;;;;;5001240;28;93231;-82
2023/07/12 08:57:22;;;;;;;14.65;4.20;;;;;;;;;;5003006;28;95740;-82
2023/07/12 08:59:52;;;;;;;15.95;3.50;;;;;;;;;;5012142;28;92605;-82
2023/07/12 09:02:23;;;;;;;17.08;3.35;;;;;;;;;;4997149;28;93679;-83
2023/07/12 09:04:52;;;;;;;17.27;3.88;;;;;;;;;;5008353;28;92567;-82
2023/07/12 09:07:26;;;;;;;24.38;3.15;;;;;;;;;;5011824;28;93186;-83
2023/07/12 09:09:54;;;;;;;16.92;3.65;;;;;;;;;;5014447;28;93456;-82
2023/07/12 09:12:25;;;;;;;13.32;3.15;;;;;;;;;;5005933;28;92601;-82
2023/07/12 09:14:53;;;;;;;15.57;3.20;;;;;;;;;;4996304;28;93479;-82
2023/07/12 09:17:24;;;;;;;13.48;3.50;;;;;;;;;;5017467;28;96046;-82
2023/07/12 09:19:51;;;;;;;13.90;3.33;;;;;;;;;;5008330;27;94244;-82
2023/07/12 09:22:18;;;;;;;14.50;3.00;;;;;;;;;;4995401;28;95033;-81
2023/07/12 09:24:46;;;;;;;11.13;3.28;;;;;;;;;;4995190;28;92519;-82
2023/07/12 09:27:16;;;;;;;11.43;2.70;;;;;;;;;;5013939;28;94328;-80
2023/07/12 09:29:43;;;;;;;16.58;3.42;;;;;;;;;;5000413;28;93930;-80
2023/07/12 09:32:17;;;;;;;12.30;3.15;;;;;;;;;;4994902;28;93883;-80
2023/07/12 09:34:45;;;;;;;13.63;3.42;;;;;;;;;;5001449;28;93498;-80
2023/07/12 09:37:16;;;;;;;13.15;2.70;;;;;;;;;;4993915;28;93813;-80
2023/07/12 09:39:59;;;;;;;17.15;3.40;;;;;;;;;;4994169;28;91724;-80
2023/07/12 09:42:26;;;;;;;24.65;3.22;;;;;;;;;;5013086;28;92478;-79
2023/07/12 09:44:53;;;;;;;14.05;2.85;;;;;;;;;;5013482;28;92457;-80
2023/07/12 09:47:19;;;;;;;13.25;2.80;;;;;;;;;;5012959;28;94846;-80
2023/07/12 09:50:01;;;;;;;11.10;2.88;;;;;;;;;;5009339;28;93927;-80
2023/07/12 09:52:31;;;;;;;11.40;1.90;;;;;;;;;;5013194;28;92463;-79
2023/07/12 09:55:08;;;;;;;7.78;2.53;;;;;;;;;;4997829;28;93948;-79
2023/07/12 09:57:53;;;;;;;12.15;2.15;;;;;;;;;;4993473;28;93960;-80
2023/07/12 10:00:22;;;;;;;11.82;2.60;;;;;;;;;;4998231;28;92462;-79
2023/07/12 10:03:02;;;;;;;15.10;2.88;;;;;;;;;;5014779;28;93710;-80
2023/07/12 10:05:29;;;;;;;13.52;2.30;;;;;;;;;;5004492;28;93688;-79
2023/07/12 10:07:58;;;;;;;9.73;2.60;;;;;;;;;;4995789;28;92476;-80
2023/07/12 10:10:28;;;;;;;10.87;2.33;;;;;;;;;;4997143;28;93418;-80
2023/07/12 10:13:07;;;;;;;13.63;2.90;;;;;;;;;;4993869;28;95174;-80
2023/07/12 10:15:36;;;;;;;11.00;2.77;;;;;;;;;;4996775;28;95605;-80
2023/07/12 10:18:03;;;;;;;18.50;3.67;;;;;;;;;;5006677;28;93821;-80
2023/07/12 10:20:29;;;;;;;17.80;3.70;;;;;;;;;;4996734;28;92913;-80
2023/07/12 10:22:56;;;;;;;9.63;2.45;;;;;;;;;;4996088;28;93138;-80
2023/07/12 10:25:31;;;;;;;13.13;2.70;;;;;;;;;;5005628;28;94719;-80
2023/07/12 10:28:05;;;;;;;8.88;2.65;;;;;;;;;;5000721;28;92806;-80
2023/07/12 10:30:32;;;;;;;9.00;2.75;;;;;;;;;;5012231;28;92764;-80
2023/07/12 10:33:07;;;;;;;11.80;2.60;;;;;;;;;;5001044;28;94384;-80
2023/07/12 10:35:37;;;;;;;10.05;2.80;;;;;;;;;;4996352;28;93220;-80
2023/07/12 10:38:11;;;;;;;11.77;2.63;;;;;;;;;;5004891;28;95979;-80
2023/07/12 10:40:39;;;;;;;12.32;3.05;;;;;;;;;;4996347;28;92690;-80
2023/07/12 10:43:12;;;;;;;14.43;3.08;;;;;;;;;;5008803;28;93157;-80
2023/07/12 10:45:39;;;;;;;11.52;2.47;;;;;;;;;;5015433;28;93383;-80
2023/07/12 10:48:06;;;;;;;11.00;2.55;;;;;;;;;;5007161;28;92618;-79
2023/07/12 10:50:37;;;;;;;11.05;2.65;;;;;;;;;;4999446;28;92730;-79
2023/07/12 10:53:10;;;;;;;9.05;2.78;;;;;;;;;;5001494;28;92824;-80
2023/07/12 10:56:05;;;;;;;4.90;2.13;;;;;;;;;;5012010;28;93608;-80
2023/07/12 10:58:45;;;;;;;10.82;2.90;;;;;;;;;;5012941;28;93715;-80
2023/07/12 11:01:39;;;;;;;14.82;2.60;;;;;;;;;;5005264;28;94281;-80
2023/07/12 11:04:06;;;;;;;11.80;2.53;;;;;;;;;;4995071;28;95894;-80
2023/07/12 11:06:33;;;;;;;18.83;2.95;;;;;;;;;;5000274;28;93607;-80
2023/07/12 11:08:59;;;;;;;8.35;2.45;;;;;;;;;;4996306;28;92463;-81
2023/07/12 11:11:32;;;;;;;11.27;2.78;;;;;;;;;;4998931;28;93100;-80
2023/07/12 11:14:25;;;;;;;8.05;2.08;;;;;;;;;;4998409;28;95146;-80
2023/07/12 11:17:06;;;;;;;12.93;2.47;;;;;;;;;;4991404;28;93091;-80
2023/07/12 11:19:33;;;;;;;8.88;2.22;;;;;;;;;;4995735;28;93280;-80
2023/07/12 11:22:20;;;;;;;8.60;2.42;;;;;;;;;;4996388;28;92837;-80
2023/07/12 11:24:57;;;;;;;9.93;2.00;;;;;;;;;;5010304;28;92634;-80
2023/07/12 11:27:26;;;;;;;9.40;2.45;;;;;;;;;;4998919;28;93490;-79
2023/07/12 11:29:56;;;;;;;8.75;2.05;;;;;;;;;;4997991;28;95042;-79
2023/07/12 11:32:22;;;;;;;;;;;;;;;;;;4994351;28;97997;-78
2023/07/12 11:34:52;;;;;;;9.75;2.08;;;;;;;;;;4997683;28;123925;-78
2023/07/12 11:37:24;;;;;;;7.63;2.00;;;;;;;;;;5010640;28;92833;-76
2023/07/12 11:39:51;;;;;;;5.88;1.95;;;;;;;;;;5001818;28;94736;-81
2023/07/12 11:42:26;;;;;;;8.73;1.80;;;;;;;;;;5015369;28;92485;-89
2023/07/12 11:45:19;;;;;;;6.88;1.40;;;;;;;;;;5012623;28;94356;-86
2023/07/12 11:47:48;;;;;;;8.15;1.67;;;;;;;;;;5026762;28;93994;-86
2023/07/12 11:50:26;;;;;;;12.75;2.17;;;;;;;;;;5010765;28;94307;-88
2023/07/12 11:52:53;;;;;;;11.77;1.75;;;;;;;;;;5015360;28;94403;-87
2023/07/12 11:55:21;;;;;;;6.65;1.85;;;;;;;;;;5015136;28;96989;-86
2023/07/12 11:57:48;;;;;;;6.85;1.80;;;;;;;;;;5020292;28;92442;-87
2023/07/12 12:00:16;;;;;;;5.35;1.58;;;;;;;;;;5014993;28;93390;-84
2023/07/12 12:02:45;;;;;;;10.65;2.10;;;;;;;;;;5001647;28;92497;-83
2023/07/12 12:05:24;;;;;;;11.93;2.20;;;;;;;;;;5011347;28;94081;-80
2023/07/12 12:07:56;;;;;;;7.80;2.13;;;;;;;;;;4995976;28;98312;-80
2023/07/12 12:10:22;;;;;;;10.73;2.47;;;;;;;;;;5002287;28;92429;-80
2023/07/12 12:12:49;;;;;;;7.15;1.75;;;;;;;;;;4996002;28;94303;-80
2023/07/12 12:15:20;;;;;;;10.85;2.50;;;;;;;;;;4995922;28;94664;-82
2023/07/12 12:17:48;;;;;;;10.48;2.08;;;;;;;;;;5008146;28;92463;-80
2023/07/12 12:20:17;;;;;;;9.32;1.80;;;;;;;;;;4996855;28;94876;-81
2023/07/12 12:22:56;;;;;;;11.85;2.65;;;;;;;;;;4996112;28;92959;-80
2023/07/12 12:25:25;;;;;;;6.70;1.58;;;;;;;;;;4997910;28;94388;-80
2023/07/12 12:27:52;;;;;;;6.35;2.03;;;;;;;;;;4995016;28;94034;-81
2023/07/12 12:30:20;;;;;;;12.07;2.20;;;;;;;;;;4994356;28;92672;-84
2023/07/12 12:32:58;;;;;;;6.68;2.17;;;;;;;;;;4995695;28;94338;-85
2023/07/12 12:35:25;;;;;;;8.95;2.20;;;;;;;;;;4996060;28;94762;-84
2023/07/12 12:38:02;;;;;;;8.18;2.05;;;;;;;;;;4994765;28;91830;-79
2023/07/12 12:40:33;;;;;;;9.33;2.30;;;;;;;;;;4995032;28;92875;-82
2023/07/12 12:43:01;;;;;;;6.28;1.83;;;;;;;;;;5011401;28;94420;-80
2023/07/12 12:45:34;;;;;;;8.35;2.40;;;;;;;;;;5003982;28;95027;-79
2023/07/12 12:48:04;;;;;;;9.30;1.98;;;;;;;;;;5010346;28;93407;-84
2023/07/12 12:50:34;;;;;;;6.70;1.98;;;;;;;;;;4997885;28;92506;-85
2023/07/12 12:53:05;;;;;;;5.33;1.77;;;;;;;;;;4991295;28;94892;-84
2023/07/12 12:55:36;;;;;;;7.85;1.55;;;;;;;;;;5010643;28;95684;-87
2023/07/12 12:58:22;;;;;;;3.72;1.40;;;;;;;;;;5012982;28;92524;-84
2023/07/12 13:01:10;;;;;;;3.53;1.40;;;;;;;;;;5005553;28;95495;-84
2023/07/12 13:03:40;;;;;;;6.07;1.40;;;;;;;;;;4999011;28;93208;-84
2023/07/12 13:06:18;;;;;;;8.38;1.88;;;;;;;;;;5000892;28;92409;-84
2023/07/12 13:08:46;;;;;;;7.22;1.95;;;;;;;;;;4998842;28;93484;-83
2023/07/12 13:11:33;;;;;;;6.25;1.88;;;;;;;;;;4993953;28;94834;-83
2023/07/12 13:14:02;;;;;;;5.18;1.67;;;;;;;;;;4995750;28;97393;-85
2023/07/12 13:16:35;;;;;;;6.20;1.40;;;;;;;;;;5004248;28;93345;-85
2023/07/12 13:19:05;;;;;;;5.05;1.48;;;;;;;;;;4993850;28;92421;-85
2023/07/12 13:21:50;;;;;;;5.28;1.35;;;;;;;;;;4995741;28;93992;-82
2023/07/12 13:24:17;;;;;;;3.10;1.23;;;;;;;;;;5000090;28;94913;-87
2023/07/12 13:26:43;;;;;;;6.55;1.17;;;;;;;;;;5013676;28;92455;-87
2023/07/12 13:29:16;;;;;;;6.43;1.15;;;;;;;;;;5019417;28;94099;-75
2023/07/12 13:31:44;;;;;;;3.95;1.30;;;;;;;;;;5009676;28;92502;-85
2023/07/12 13:34:10;;;;;;;4.57;0.85;;;;;;;;;;4999690;28;93209;-87
2023/07/12 13:36:45;;;;;;;3.17;1.10;;;;;;;;;;4993191;28;96741;-87
2023/07/12 13:39:11;;;;;;;;;;;;;;;;;;5000273;28;93318;-87
2023/07/12 13:41:41;;;;;;;3.53;1.08;;;;;;;;;;5014075;28;93543;-84
2023/07/12 13:44:12;;;;;;;3.30;1.00;;;;;;;;;;5005083;28;93189;-83
2023/07/12 13:46:42;;;;;;;7.53;1.20;;;;;;;;;;5000008;28;92773;-83
2023/07/12 13:49:12;;;;;;;4.70;1.20;;;;;;;;;;4997180;28;94313;-85
2023/07/12 13:51:39;;;;;;;2.72;1.02;;;;;;;;;;4993559;28;93887;-83
2023/07/12 13:54:06;;;;;;;5.85;1.23;;;;;;;;;;4995228;28;93324;-84
2023/07/12 13:56:33;;;;;;;3.60;1.10;;;;;;;;;;5003186;28;93897;-83
2023/07/12 13:59:02;;;;;;;2.73;0.90;;;;;;;;;;5008010;28;92739;-83
2023/07/12 14:01:44;;;;;;;2.55;1.08;;;;;;;;;;4992833;28;95177;-84
2023/07/12 14:04:26;;;;;;;3.03;1.00;;;;;;;;;;4994103;28;94640;-87
2023/07/12 14:06:59;;;;;;;7.05;1.00;;;;;;;;;;5002658;28;92545;-86
2023/07/12 14:09:42;;;;;;;8.73;1.40;;;;;;;;;;5001903;28;93958;-84
2023/07/12 14:12:15;;;;;;;8.93;1.40;;;;;;;;;;4996515;28;94540;-83
2023/07/12 14:14:42;;;;;;;1.75;0.80;;;;;;;;;;4994943;28;93111;-84
2023/07/12 14:17:13;;;;;;;2.63;1.10;;;;;;;;;;5000471;28;94457;-83
2023/07/12 14:19:40;;;;;;;4.90;1.48;;;;;;;;;;5000399;28;91717;-83
2023/07/12 14:22:27;;;;;;;7.05;1.10;;;;;;;;;;5012224;28;93581;-83
2023/07/12 14:24:55;;;;;;;3.92;1.13;;;;;;;;;;5011526;28;93447;-83
2023/07/12 14:27:23;;;;;;;3.33;0.90;;;;;;;;;;4998663;28;94963;-84
2023/07/12 14:29:50;;;;;;;4.90;1.17;;;;;;;;;;4995479;28;96639;-83
2023/07/12 14:32:27;;;;;;;4.63;1.42;;;;;;;;;;4995245;28;96365;-83
2023/07/12 14:34:54;;;;;;;2.70;1.10;;;;;;;;;;5009548;28;92719;-84
2023/07/12 14:37:21;;;;;;;8.05;1.10;;;;;;;;;;5015867;28;94928;-84
2023/07/12 14:39:47;;;;;;;5.90;1.25;;;;;;;;;;5002183;28;92402;-83
2023/07/12 14:42:22;;;;;;;4.30;1.15;;;;;;;;;;5001766;28;93132;-84
2023/07/12 14:44:48;;;;;;;4.70;1.02;;;;;;;;;;5003031;28;93337;-85
2023/07/12 14:47:16;;;;;;;7.43;1.33;;;;;;;;;;5015577;28;92723;-84